Time;durP1;ratioP1;P1;durP2;ratioP2;P2;SDS_P1;SDS_P2;PMS_P1;PMS_P2;Temp;Humidity;BMP_temperature;BMP_pressure;BME280_temperature;BME280_humidity;BME280_pressure;Samples;Min_cycle;Max_cycle;Signal;HPM_P1;HPM_P2
2021/08/22 00:01:53;;;;;;;19.13;14.52;;;18.50;93.90;;;;;;4958048;28;20079;-58
2021/08/22 00:04:18;;;;;;;16.55;14.27;;;18.50;93.90;;;;;;4944514;29;20142;-58
2021/08/22 00:06:44;;;;;;;17.92;14.18;;;18.50;93.90;;;;;;4957392;29;20042;-58
2021/08/22 00:09:10;;;;;;;19.95;16.35;;;18.50;94.10;;;;;;4957629;29;20051;-58
2021/08/22 00:11:35;;;;;;;17.35;15.32;;;18.50;94.20;;;;;;4958445;29;20035;-58
2021/08/22 00:14:02;;;;;;;19.75;17.05;;;18.50;94.10;;;;;;4957224;29;20043;-59
2021/08/22 00:16:30;;;;;;;19.70;16.88;;;18.60;94.00;;;;;;4961860;28;20237;-58
2021/08/22 00:18:58;;;;;;;19.00;16.35;;;18.50;94.10;;;;;;4960861;28;20089;-55
2021/08/22 00:21:23;;;;;;;19.45;17.35;;;18.60;93.90;;;;;;4954322;29;20046;-55
2021/08/22 00:23:49;;;;;;;21.88;17.80;;;18.60;94.00;;;;;;4964380;28;20034;-55
2021/08/22 00:26:15;;;;;;;22.77;18.27;;;18.60;94.20;;;;;;4960130;28;20043;-55
2021/08/22 00:28:40;;;;;;;19.50;17.08;;;18.50;94.20;;;;;;4923672;29;20042;-54
2021/08/22 00:31:06;;;;;;;19.88;16.95;;;18.50;94.40;;;;;;4955252;29;20063;-54
2021/08/22 00:33:32;;;;;;;21.58;17.67;;;18.50;94.50;;;;;;4967179;28;20063;-53
2021/08/22 00:35:58;;;;;;;20.73;17.80;;;18.50;94.70;;;;;;4959793;29;20082;-55
2021/08/22 00:38:24;;;;;;;19.02;17.00;;;18.40;94.70;;;;;;4959291;29;20114;-55
2021/08/22 00:40:51;;;;;;;19.17;16.83;;;18.40;94.90;;;;;;4955511;29;20120;-55
2021/08/22 00:43:18;;;;;;;22.65;19.38;;;18.40;95.10;;;;;;4925364;29;20820;-54
2021/08/22 00:45:44;;;;;;;24.75;20.23;;;18.30;95.20;;;;;;4924818;29;20111;-51
2021/08/22 00:48:12;;;;;;;25.23;20.52;;;18.30;95.40;;;;;;4955699;28;20074;-51
2021/08/22 00:50:38;;;;;;;25.92;22.55;;;18.30;95.60;;;;;;4960615;29;20435;-52
2021/08/22 00:53:07;;;;;;;28.00;23.27;;;18.20;95.80;;;;;;4957215;29;20085;-58
2021/08/22 00:55:33;;;;;;;32.35;24.08;;;18.20;96.00;;;;;;4950536;29;20035;-57
2021/08/22 00:57:59;;;;;;;32.50;23.90;;;18.10;96.20;;;;;;4956355;28;20130;-55
2021/08/22 01:00:25;;;;;;;30.67;24.63;;;18.00;96.50;;;;;;4954386;29;20074;-52
2021/08/22 01:03:12;;;;;;;27.42;22.48;;;18.00;96.80;;;;;;4951683;29;20051;-53
2021/08/22 01:05:51;;;;;;;30.20;23.58;;;17.90;97.30;;;;;;4922201;29;20043;-56
2021/08/22 01:08:40;;;;;;;30.17;23.30;;;17.80;97.50;;;;;;4958715;28;20046;-58
2021/08/22 01:11:17;;;;;;;32.03;23.80;;;17.80;97.60;;;;;;4947297;29;20389;-50
2021/08/22 01:13:52;;;;;;;31.35;24.55;;;17.70;97.90;;;;;;4940238;29;20046;-55
2021/08/22 01:16:19;;;;;;;40.38;26.85;;;17.70;97.70;;;;;;4953147;28;20051;-53
2021/08/22 01:18:47;;;;;;;41.58;28.00;;;17.70;97.80;;;;;;4911282;29;20051;-54
2021/08/22 01:21:15;;;;;;;33.25;25.27;;;17.60;98.10;;;;;;4945770;29;20039;-48
2021/08/22 01:23:47;;;;;;;38.42;26.98;;;17.70;98.30;;;;;;4957375;28;20039;-51
2021/08/22 01:26:17;;;;;;;38.63;26.48;;;17.60;98.40;;;;;;4924127;29;20039;-48
2021/08/22 01:28:48;;;;;;;37.85;26.88;;;17.60;98.70;;;;;;4957756;29;20043;-49
2021/08/22 01:31:17;;;;;;;38.13;28.52;;;17.60;98.80;;;;;;4940104;29;20043;-53
2021/08/22 01:33:45;;;;;;;45.17;28.60;;;17.50;99.20;;;;;;4959926;28;20103;-52
2021/08/22 01:36:12;;;;;;;34.55;25.58;;;17.50;99.30;;;;;;4955968;28;20047;-49
2021/08/22 01:38:39;;;;;;;36.35;26.83;;;17.50;99.60;;;;;;4931078;29;20055;-51
2021/08/22 01:41:06;;;;;;;39.53;27.60;;;17.50;99.70;;;;;;4942768;29;20040;-48
2021/08/22 01:43:34;;;;;;;42.90;28.08;;;17.50;99.70;;;;;;4958497;29;20035;-58
2021/08/22 01:46:01;;;;;;;49.75;28.60;;;17.30;99.80;;;;;;4941656;29;20055;-54
2021/08/22 01:48:27;;;;;;;38.67;26.73;;;17.40;99.90;;;;;;4951509;29;20067;-57
2021/08/22 01:51:03;;;;;;;41.08;27.83;;;17.40;99.90;;;;;;4942372;29;20051;-58
2021/08/22 01:53:31;;;;;;;38.15;27.10;;;17.40;99.90;;;;;;4955231;29;20047;-56
2021/08/22 01:55:58;;;;;;;42.42;28.45;;;17.50;99.90;;;;;;4955649;28;20043;-58
2021/08/22 01:58:26;;;;;;;41.53;27.48;;;17.40;99.90;;;;;;4930883;28;20031;-58
2021/08/22 02:00:52;;;;;;;36.88;26.52;;;17.40;99.90;;;;;;4955170;29;20050;-57
2021/08/22 02:03:38;;;;;;;40.38;27.95;;;17.40;99.90;;;;;;4954862;28;20431;-58
2021/08/22 02:06:15;;;;;;;44.75;29.73;;;17.20;99.90;;;;;;4937034;29;20083;-58
2021/08/22 02:08:44;;;;;;;50.20;30.13;;;17.30;99.90;;;;;;4936230;29;20106;-56
2021/08/22 02:11:16;;;;;;;43.58;29.67;;;17.30;99.90;;;;;;4933625;29;20517;-52
2021/08/22 02:13:53;;;;;;;43.65;28.92;;;17.30;99.90;;;;;;4938188;29;20047;-52
2021/08/22 02:16:24;;;;;;;36.22;26.00;;;17.30;99.90;;;;;;4963284;28;20047;-53
2021/08/22 02:18:52;;;;;;;41.38;28.45;;;17.20;99.90;;;;;;4951353;29;20054;-52
2021/08/22 02:21:22;;;;;;;38.45;27.38;;;17.30;99.90;;;;;;4948225;29;20103;-55
2021/08/22 02:23:52;;;;;;;44.13;28.48;;;17.20;99.90;;;;;;4948148;29;20508;-51
2021/08/22 02:26:21;;;;;;;42.17;28.15;;;17.30;99.90;;;;;;4922157;28;20456;-54
2021/08/22 02:28:59;;;;;;;43.92;28.77;;;17.20;99.90;;;;;;4956643;29;20053;-54
2021/08/22 02:31:28;;;;;;;45.30;29.02;;;17.30;99.90;;;;;;4919969;29;20079;-55
2021/08/22 02:33:58;;;;;;;44.28;30.63;;;17.20;99.90;;;;;;4956369;28;20415;-56
2021/08/22 02:36:29;;;;;;;50.25;30.60;;;17.20;99.90;;;;;;4933964;29;20126;-58
2021/08/22 02:38:55;;;;;;;46.47;28.83;;;17.30;99.90;;;;;;4957439;28;20051;-59
2021/08/22 02:41:21;;;;;;;44.00;29.45;;;17.30;99.90;;;;;;4964814;28;20134;-58
2021/08/22 02:43:48;;;;;;;36.13;26.58;;;17.30;99.90;;;;;;4942369;29;20043;-58
2021/08/22 02:46:14;;;;;;;36.15;27.52;;;17.30;99.90;;;;;;4960949;28;20335;-56
2021/08/22 02:48:39;;;;;;;41.83;28.58;;;17.30;99.90;;;;;;4955868;28;20126;-58
2021/08/22 02:51:05;;;;;;;42.33;28.88;;;17.30;99.90;;;;;;4955860;28;20040;-48
2021/08/22 02:53:32;;;;;;;40.70;29.15;;;17.20;99.90;;;;;;4956483;29;20070;-48
2021/08/22 02:55:57;;;;;;;49.72;32.17;;;17.30;99.90;;;;;;4951882;28;20047;-49
2021/08/22 02:58:23;;;;;;;44.95;31.25;;;17.20;99.90;;;;;;4955338;28;20062;-48
2021/08/22 03:00:49;;;;;;;53.85;32.92;;;17.20;99.90;;;;;;4957014;28;20043;-49
2021/08/22 03:03:15;;;;;;;47.22;31.95;;;17.20;99.90;;;;;;4946382;29;20043;-48
2021/08/22 03:05:41;;;;;;;47.17;31.63;;;17.10;99.90;;;;;;4949710;28;20048;-49
2021/08/22 03:08:07;;;;;;;51.30;31.80;;;17.10;99.90;;;;;;4954512;29;20107;-49
2021/08/22 03:10:33;;;;;;;49.38;32.30;;;17.20;99.90;;;;;;4964670;28;20086;-52
2021/08/22 03:13:01;;;;;;;56.35;34.58;;;17.10;99.90;;;;;;4953394;28;20763;-49
2021/08/22 03:15:27;;;;;;;57.30;33.90;;;17.10;99.90;;;;;;4926735;29;20051;-52
2021/08/22 03:17:52;;;;;;;58.42;34.63;;;17.10;99.90;;;;;;4954951;28;20122;-51
2021/08/22 03:20:19;;;;;;;55.78;33.90;;;17.20;99.90;;;;;;4958599;29;20051;-49
2021/08/22 03:22:45;;;;;;;59.85;34.33;;;17.10;99.90;;;;;;4942832;29;20043;-50
2021/08/22 03:25:13;;;;;;;58.83;35.30;;;17.10;99.90;;;;;;4958121;28;20070;-49
2021/08/22 03:27:39;;;;;;;59.50;34.38;;;17.20;99.90;;;;;;4958123;29;20089;-53
2021/08/22 03:30:10;;;;;;;60.13;34.90;;;17.10;99.90;;;;;;4950605;29;20050;-55
2021/08/22 03:32:38;;;;;;;68.22;35.50;;;17.10;99.90;;;;;;4940671;29;20035;-49
2021/08/22 03:35:05;;;;;;;51.92;30.40;;;17.10;99.90;;;;;;4950770;28;20043;-55
2021/08/22 03:37:34;;;;;;;54.80;34.78;;;17.10;99.90;;;;;;4957932;29;20067;-55
2021/08/22 03:40:00;;;;;;;57.50;34.95;;;17.10;99.90;;;;;;4954652;28;20083;-55
2021/08/22 03:42:27;;;;;;;56.03;33.92;;;17.20;99.90;;;;;;4925811;29;20046;-52
2021/08/22 03:44:54;;;;;;;56.13;34.13;;;17.20;99.90;;;;;;4942544;28;20058;-56
2021/08/22 03:47:20;;;;;;;52.22;33.45;;;17.20;99.90;;;;;;4904516;29;20039;-55
2021/08/22 03:49:46;;;;;;;53.92;34.05;;;17.20;99.90;;;;;;4953954;29;20046;-54
2021/08/22 03:52:12;;;;;;;56.33;33.55;;;17.20;99.90;;;;;;4947794;29;20040;-55
2021/08/22 03:54:38;;;;;;;49.17;31.88;;;17.20;99.90;;;;;;4953232;28;20078;-52
2021/08/22 03:57:04;;;;;;;45.55;31.42;;;17.20;99.90;;;;;;4946317;29;20044;-55
2021/08/22 03:59:48;;;;;;;48.08;32.58;;;17.20;99.90;;;;;;4945348;28;20038;-51
2021/08/22 04:02:14;;;;;;;50.50;32.97;;;17.20;99.90;;;;;;4954660;29;20039;-57
2021/08/22 04:04:39;;;;;;;52.08;31.48;;;17.20;99.90;;;;;;4954195;29;20099;-56
2021/08/22 04:07:06;;;;;;;54.50;32.35;;;17.20;99.90;;;;;;4948037;28;20511;-58
2021/08/22 04:09:32;;;;;;;58.35;33.17;;;17.20;99.90;;;;;;4954770;29;20054;-55
2021/08/22 04:11:59;;;;;;;43.50;29.48;;;17.20;99.90;;;;;;4937934;29;20043;-59
2021/08/22 04:14:25;;;;;;;49.37;31.43;;;17.20;99.90;;;;;;4934594;28;20522;-58
2021/08/22 04:16:52;;;;;;;49.95;32.25;;;17.20;99.90;;;;;;4954283;29;20051;-58
2021/08/22 04:19:20;;;;;;;51.70;33.15;;;17.20;99.90;;;;;;4937455;29;20043;-58
2021/08/22 04:21:46;;;;;;;44.35;30.88;;;17.20;99.90;;;;;;4939859;29;20492;-50
2021/08/22 04:24:12;;;;;;;47.53;31.05;;;17.20;99.90;;;;;;4955631;29;20139;-50
2021/08/22 04:26:40;;;;;;;47.42;30.75;;;17.20;99.90;;;;;;4947710;29;20058;-54
2021/08/22 04:29:11;;;;;;;53.53;32.60;;;17.20;99.90;;;;;;4933610;28;20047;-55
2021/08/22 04:31:37;;;;;;;45.97;30.48;;;17.20;99.90;;;;;;4950078;29;20046;-55
2021/08/22 04:34:02;;;;;;;45.28;29.85;;;17.20;99.90;;;;;;4916923;29;20469;-55
2021/08/22 04:36:28;;;;;;;54.60;30.27;;;17.20;99.90;;;;;;4946130;29;20058;-52
2021/08/22 04:38:54;;;;;;;48.03;30.95;;;17.20;99.90;;;;;;4955516;29;20642;-52
2021/08/22 04:41:20;;;;;;;49.17;31.42;;;17.20;99.90;;;;;;4955447;29;20039;-55
2021/08/22 04:43:47;;;;;;;50.85;31.20;;;17.20;99.90;;;;;;4954089;29;20253;-52
2021/08/22 04:46:13;;;;;;;53.97;32.10;;;17.20;99.90;;;;;;4946149;28;20154;-54
2021/08/22 04:48:40;;;;;;;43.38;30.23;;;17.20;99.90;;;;;;4933341;29;20103;-55
2021/08/22 04:51:07;;;;;;;52.92;32.90;;;17.20;99.90;;;;;;4937362;29;20103;-55
2021/08/22 04:53:34;;;;;;;43.25;30.58;;;17.20;99.90;;;;;;4949008;29;20515;-55
2021/08/22 04:56:05;;;;;;;50.42;32.13;;;17.20;99.90;;;;;;4913677;29;20073;-55
2021/08/22 04:58:33;;;;;;;53.00;32.90;;;17.20;99.90;;;;;;4938152;29;20039;-55
2021/08/22 05:00:59;;;;;;;50.58;33.10;;;17.20;99.90;;;;;;4948299;29;20106;-53
2021/08/22 05:03:24;;;;;;;44.38;31.15;;;17.20;99.90;;;;;;4937020;29;20450;-48
2021/08/22 05:05:50;;;;;;;51.22;33.58;;;17.20;99.90;;;;;;4954122;29;20047;-54
2021/08/22 05:08:18;;;;;;;49.15;33.00;;;17.20;99.90;;;;;;4956229;29;20053;-54
2021/08/22 05:10:45;;;;;;;45.85;31.40;;;17.20;99.90;;;;;;4954468;29;20074;-50
2021/08/22 05:13:13;;;;;;;51.03;32.08;;;17.20;99.90;;;;;;4921152;29;20507;-54
2021/08/22 05:15:50;;;;;;;46.55;33.05;;;17.20;99.90;;;;;;4954915;28;20108;-51
2021/08/22 05:18:18;;;;;;;45.45;32.55;;;17.20;99.90;;;;;;4943858;29;20044;-56
2021/08/22 05:20:46;;;;;;;45.70;32.40;;;17.20;99.90;;;;;;4921284;29;20420;-57
2021/08/22 05:23:12;;;;;;;48.97;33.05;;;17.20;99.90;;;;;;4942031;29;20110;-55
2021/08/22 05:25:37;;;;;;;45.97;31.92;;;17.20;99.90;;;;;;4950388;29;20063;-53
2021/08/22 05:28:03;;;;;;;53.30;34.33;;;17.20;99.90;;;;;;4953493;29;20078;-51
2021/08/22 05:30:33;;;;;;;45.90;32.40;;;17.30;99.90;;;;;;4957124;28;20054;-54
2021/08/22 05:33:02;;;;;;;50.53;33.60;;;17.30;99.90;;;;;;4937541;28;20062;-55
2021/08/22 05:35:29;;;;;;;47.20;33.15;;;17.20;99.90;;;;;;4925407;29;20054;-54
2021/08/22 05:37:55;;;;;;;48.45;34.47;;;17.20;99.90;;;;;;4955868;28;20511;-48
2021/08/22 05:40:21;;;;;;;51.13;34.95;;;17.30;99.90;;;;;;4966799;28;20039;-52
2021/08/22 05:42:47;;;;;;;53.53;35.92;;;17.20;99.90;;;;;;4886639;29;20070;-49
2021/08/22 05:45:14;;;;;;;60.33;37.30;;;17.20;99.90;;;;;;4939834;29;20051;-51
2021/08/22 05:47:40;;;;;;;50.33;35.10;;;17.20;99.90;;;;;;4921146;29;20055;-55
2021/08/22 05:50:09;;;;;;;53.83;35.72;;;17.30;99.90;;;;;;4920663;28;20385;-52
2021/08/22 05:52:36;;;;;;;58.22;36.85;;;17.20;99.90;;;;;;4954680;28;20047;-51
2021/08/22 05:55:07;;;;;;;64.32;38.55;;;17.30;99.90;;;;;;4949907;29;20500;-48
2021/08/22 05:57:33;;;;;;;54.30;36.92;;;17.20;99.90;;;;;;4953232;28;20051;-50
2021/08/22 05:59:59;;;;;;;55.72;37.58;;;17.20;99.90;;;;;;4951929;29;20081;-58
2021/08/22 06:02:25;;;;;;;56.17;37.40;;;17.20;99.90;;;;;;4929292;29;20067;-58
2021/08/22 06:04:51;;;;;;;56.90;37.78;;;17.20;99.90;;;;;;4944346;28;20062;-58
2021/08/22 06:07:20;;;;;;;56.03;37.55;;;17.20;99.90;;;;;;4954538;28;20047;-56
2021/08/22 06:09:58;;;;;;;70.95;40.95;;;17.20;99.90;;;;;;4936189;29;20542;-58
2021/08/22 06:12:24;;;;;;;56.17;37.92;;;17.20;99.90;;;;;;4949777;29;20039;-58
2021/08/22 06:14:49;;;;;;;54.63;37.45;;;17.20;99.90;;;;;;4942147;29;20035;-56
2021/08/22 06:17:25;;;;;;;59.95;38.03;;;17.20;99.90;;;;;;4962255;28;20051;-55
2021/08/22 06:19:51;;;;;;;57.88;37.55;;;17.20;99.90;;;;;;4954332;29;20054;-55
2021/08/22 06:22:17;;;;;;;64.20;39.95;;;17.30;99.90;;;;;;4949202;29;20054;-56
2021/08/22 06:24:42;;;;;;;66.32;39.55;;;17.30;99.90;;;;;;4944760;29;20437;-56
2021/08/22 06:27:14;;;;;;;59.30;39.72;;;17.30;99.90;;;;;;4952517;28;20492;-52
2021/08/22 06:29:39;;;;;;;58.28;37.97;;;17.30;99.90;;;;;;4952286;28;20110;-55
2021/08/22 06:32:10;;;;;;;68.45;39.88;;;17.30;99.90;;;;;;4940300;29;20035;-54
2021/08/22 06:34:36;;;;;;;59.78;38.17;;;17.30;99.90;;;;;;4952646;28;20058;-55
2021/08/22 06:37:02;;;;;;;53.40;35.97;;;17.30;99.90;;;;;;4947598;28;20043;-56
2021/08/22 06:39:42;;;;;;;55.35;35.92;;;17.40;99.90;;;;;;4925699;29;20831;-55
2021/08/22 06:42:13;;;;;;;60.60;37.00;;;17.40;99.90;;;;;;4941560;29;20040;-56
2021/08/22 06:44:39;;;;;;;54.63;35.28;;;17.40;99.90;;;;;;4949733;28;20039;-58
2021/08/22 06:47:07;;;;;;;55.85;36.10;;;17.40;99.90;;;;;;4951225;29;20070;-58
2021/08/22 06:49:33;;;;;;;59.47;37.55;;;17.40;99.90;;;;;;4953692;29;20047;-56
2021/08/22 06:51:58;;;;;;;62.70;38.53;;;17.40;99.90;;;;;;4942612;29;20130;-55
2021/08/22 06:54:24;;;;;;;57.42;37.20;;;17.50;99.90;;;;;;4943217;29;20051;-52
2021/08/22 06:56:53;;;;;;;53.67;35.13;;;17.50;99.90;;;;;;4950407;28;20039;-51
2021/08/22 06:59:24;;;;;;;60.33;37.22;;;17.50;99.90;;;;;;4914545;29;20059;-57
2021/08/22 07:01:55;;;;;;;57.75;38.00;;;17.50;99.90;;;;;;4950204;28;20079;-56
2021/08/22 07:04:20;;;;;;;57.70;36.28;;;17.50;99.90;;;;;;4953552;28;20170;-55
2021/08/22 07:06:46;;;;;;;58.05;37.22;;;17.50;99.90;;;;;;4948579;28;20118;-54
2021/08/22 07:09:12;;;;;;;51.03;35.10;;;17.50;99.90;;;;;;4949366;29;20122;-58
2021/08/22 07:11:39;;;;;;;51.90;35.40;;;17.60;99.90;;;;;;4936453;29;20150;-57
2021/08/22 07:14:25;;;;;;;56.90;37.20;;;17.60;99.90;;;;;;4941380;28;20476;-57
2021/08/22 07:16:51;;;;;;;53.33;35.10;;;17.60;99.90;;;;;;4950356;29;20083;-54
2021/08/22 07:19:17;;;;;;;53.03;33.30;;;17.60;99.90;;;;;;4936870;29;20567;-54
2021/08/22 07:21:42;;;;;;;52.47;32.90;;;17.70;99.90;;;;;;4942248;29;20043;-56
2021/08/22 07:24:08;;;;;;;45.60;31.55;;;17.60;99.90;;;;;;4949366;29;20043;-56
2021/08/22 07:26:34;;;;;;;37.50;28.83;;;17.70;99.90;;;;;;4941590;28;20089;-52
2021/08/22 07:29:02;;;;;;;39.95;28.52;;;17.70;99.90;;;;;;4931307;29;20051;-55
2021/08/22 07:31:30;;;;;;;35.63;27.73;;;17.70;99.90;;;;;;4949584;28;20062;-54
2021/08/22 07:33:56;;;;;;;36.63;25.38;;;17.70;99.90;;;;;;4945620;28;20090;-56
2021/08/22 07:36:22;;;;;;;30.35;23.65;;;17.70;99.90;;;;;;4951424;28;20079;-53
2021/08/22 07:38:47;;;;;;;31.42;23.30;;;17.70;99.90;;;;;;4952256;28;20048;-54
2021/08/22 07:41:13;;;;;;;31.77;24.33;;;17.80;99.90;;;;;;4950055;28;20043;-54
2021/08/22 07:43:41;;;;;;;34.35;26.00;;;17.90;99.90;;;;;;4951776;28;20047;-54
2021/08/22 07:46:07;;;;;;;29.95;22.63;;;17.90;99.90;;;;;;4952189;28;20073;-54
2021/08/22 07:48:33;;;;;;;24.75;19.35;;;18.00;99.90;;;;;;4951734;28;20047;-55
2021/08/22 07:50:58;;;;;;;19.67;17.17;;;18.10;99.90;;;;;;4958489;28;20560;-53
2021/08/22 07:53:24;;;;;;;19.92;16.08;;;18.20;99.90;;;;;;4947968;28;20106;-54
2021/08/22 07:55:49;;;;;;;18.10;15.68;;;18.30;99.90;;;;;;4937828;28;20055;-56
2021/08/22 07:58:15;;;;;;;19.35;15.38;;;18.30;99.90;;;;;;4954087;28;20082;-55
2021/08/22 08:00:41;;;;;;;19.75;15.88;;;18.40;99.90;;;;;;4950982;28;20149;-55
2021/08/22 08:03:07;;;;;;;16.20;14.23;;;18.40;99.90;;;;;;4952102;28;20039;-53
2021/08/22 08:05:32;;;;;;;16.52;14.18;;;18.40;99.90;;;;;;4952417;28;20460;-54
2021/08/22 08:07:59;;;;;;;16.35;14.30;;;18.40;99.90;;;;;;4941869;29;20492;-53
2021/08/22 08:10:28;;;;;;;16.08;14.38;;;18.40;99.90;;;;;;4929603;29;20039;-53
2021/08/22 08:12:54;;;;;;;16.00;14.27;;;18.30;99.90;;;;;;4918155;29;20035;-54
2021/08/22 08:15:26;;;;;;;18.25;14.90;;;18.30;99.90;;;;;;4949499;28;20576;-53
2021/08/22 08:17:52;;;;;;;18.63;16.63;;;18.20;99.90;;;;;;4925838;29;20051;-54
2021/08/22 08:20:18;;;;;;;19.25;16.92;;;18.10;99.90;;;;;;4939469;28;20309;-54
2021/08/22 08:22:43;;;;;;;18.70;16.77;;;18.10;99.90;;;;;;4938801;29;20514;-54
2021/08/22 08:25:14;;;;;;;20.23;17.85;;;18.00;99.90;;;;;;4937831;29;20047;-58
2021/08/22 08:27:39;;;;;;;20.20;18.15;;;18.00;99.90;;;;;;4945508;29;20111;-57
2021/08/22 08:30:06;;;;;;;23.83;21.27;;;18.00;99.90;;;;;;4953654;29;20093;-57
2021/08/22 08:32:31;;;;;;;24.00;20.27;;;18.00;99.90;;;;;;4939396;29;20055;-57
2021/08/22 08:34:57;;;;;;;24.30;21.75;;;17.90;99.90;;;;;;4942035;29;20044;-58
2021/08/22 08:37:23;;;;;;;24.88;22.23;;;17.90;99.90;;;;;;4944087;29;20088;-57
2021/08/22 08:39:53;;;;;;;25.42;22.80;;;18.00;99.90;;;;;;4948388;28;20507;-52
2021/08/22 08:42:21;;;;;;;25.85;23.05;;;18.00;99.90;;;;;;4932025;29;20472;-50
2021/08/22 08:44:57;;;;;;;24.67;22.02;;;18.10;99.90;;;;;;4943006;28;20524;-57
2021/08/22 08:47:32;;;;;;;23.55;21.05;;;18.10;99.90;;;;;;4920062;29;20054;-56
2021/08/22 08:50:03;;;;;;;25.45;22.75;;;18.10;99.90;;;;;;4936390;29;20051;-52
2021/08/22 08:52:40;;;;;;;25.98;23.08;;;18.20;99.90;;;;;;4940104;28;20039;-54
2021/08/22 08:55:25;;;;;;;23.73;21.23;;;18.10;99.90;;;;;;4938138;29;20048;-50
2021/08/22 08:57:52;;;;;;;24.00;21.40;;;18.10;99.90;;;;;;4932386;29;20468;-52
2021/08/22 09:00:37;;;;;;;24.60;20.27;;;18.10;99.90;;;;;;4944673;28;20048;-57
2021/08/22 09:03:20;;;;;;;23.75;20.63;;;18.20;99.90;;;;;;4950304;29;20051;-57
2021/08/22 09:06:04;;;;;;;21.63;19.33;;;18.20;99.90;;;;;;4938582;28;20047;-57
2021/08/22 09:09:07;;;;;;;21.75;19.38;;;18.30;99.90;;;;;;4947888;28;20047;-57
2021/08/22 09:12:15;;;;;;;21.00;18.45;;;18.40;99.90;;;;;;4949338;29;20047;-59
2021/08/22 09:15:43;;;;;;;18.95;16.95;;;18.60;99.90;;;;;;4943482;28;20122;-55
2021/08/22 09:18:47;;;;;;;17.73;14.73;;;18.80;99.90;;;;;;4885435;29;20056;-55
2021/08/22 09:21:53;;;;;;;15.18;13.55;;;19.10;99.20;;;;;;4947985;28;20046;-55
2021/08/22 09:24:18;;;;;;;14.63;12.77;;;19.30;98.50;;;;;;4946028;29;20768;-56
2021/08/22 09:27:22;;;;;;;14.80;13.20;;;19.50;98.00;;;;;;4950667;29;20051;-52
2021/08/22 09:30:08;;;;;;;14.55;11.82;;;19.60;97.20;;;;;;4950404;29;20058;-56
2021/08/22 09:33:11;;;;;;;14.45;11.60;;;19.50;97.10;;;;;;4951949;28;20031;-56
2021/08/22 09:36:12;;;;;;;12.23;10.25;;;19.50;96.80;;;;;;4951309;28;20161;-55
2021/08/22 09:39:15;;;;;;;12.77;10.38;;;19.50;96.20;;;;;;4950246;29;20047;-55
2021/08/22 09:42:21;;;;;;;12.45;9.60;;;19.50;96.10;;;;;;4936466;29;20507;-55
2021/08/22 09:45:42;;;;;;;11.43;8.43;;;19.60;96.10;;;;;;4938845;28;20068;-49
2021/08/22 09:48:42;;;;;;;10.45;9.35;;;19.70;95.80;;;;;;4873494;29;20041;-50
2021/08/22 09:51:09;;;;;;;11.55;10.35;;;19.70;95.70;;;;;;4920250;29;20055;-52
2021/08/22 09:54:25;;;;;;;13.02;11.20;;;19.70;95.90;;;;;;4948060;29;20416;-55
2021/08/22 09:57:08;;;;;;;11.35;10.25;;;19.60;96.30;;;;;;4927119;29;20039;-54
2021/08/22 09:59:48;;;;;;;12.30;10.70;;;19.50;96.40;;;;;;4949055;29;20512;-55
2021/08/22 10:03:00;;;;;;;16.50;12.68;;;19.50;96.50;;;;;;4949792;28;20058;-54
2021/08/22 10:05:32;;;;;;;15.13;12.27;;;19.60;96.30;;;;;;4911491;29;20052;-54
2021/08/22 10:08:01;;;;;;;13.95;11.85;;;19.60;96.20;;;;;;4939900;29;20051;-55
2021/08/22 10:10:46;;;;;;;16.63;12.88;;;19.70;96.20;;;;;;4933882;29;20098;-55
2021/08/22 10:13:12;;;;;;;15.77;13.50;;;19.70;96.50;;;;;;4941705;29;20093;-54
2021/08/22 10:15:44;;;;;;;14.02;12.52;;;19.70;95.80;;;;;;4952482;29;20097;-54
2021/08/22 10:18:10;;;;;;;14.75;12.65;;;19.70;95.50;;;;;;4934569;29;20779;-55
2021/08/22 10:20:41;;;;;;;14.80;13.00;;;19.70;95.70;;;;;;4946877;28;20040;-54
2021/08/22 10:23:41;;;;;;;15.30;12.95;;;19.70;95.90;;;;;;4952041;28;20046;-55
2021/08/22 10:26:09;;;;;;;12.52;11.10;;;19.70;96.00;;;;;;4947887;28;20038;-55
2021/08/22 10:28:54;;;;;;;17.20;12.07;;;19.70;95.80;;;;;;4933328;29;20039;-54
2021/08/22 10:31:49;;;;;;;17.42;13.45;;;19.70;95.80;;;;;;4948215;28;20036;-54
2021/08/22 10:34:27;;;;;;;17.75;14.77;;;19.80;96.00;;;;;;4955314;28;20049;-54
2021/08/22 10:36:56;;;;;;;20.60;15.43;;;19.90;95.90;;;;;;4943950;29;20056;-58
2021/08/22 10:39:22;;;;;;;17.45;13.93;;;20.00;95.60;;;;;;4952238;29;20046;-58
2021/08/22 10:41:49;;;;;;;15.32;13.38;;;20.10;95.30;;;;;;4957220;28;20059;-56
2021/08/22 10:44:35;;;;;;;15.07;12.13;;;20.10;95.20;;;;;;4951454;28;20093;-56
2021/08/22 10:47:09;;;;;;;15.27;11.20;;;20.10;95.10;;;;;;4952645;29;20070;-56
2021/08/22 10:49:50;;;;;;;9.90;8.15;;;20.10;94.80;;;;;;4936238;29;20043;-55
2021/08/22 10:52:26;;;;;;;9.95;7.57;;;20.10;94.70;;;;;;4946431;28;20077;-55
2021/08/22 10:55:11;;;;;;;12.13;7.93;;;20.10;94.60;;;;;;4937793;28;20055;-56
2021/08/22 10:57:43;;;;;;;9.85;7.70;;;20.20;94.70;;;;;;4946929;29;20050;-56
2021/08/22 11:00:21;;;;;;;6.60;5.60;;;20.20;94.70;;;;;;4957308;28;20043;-56
2021/08/22 11:02:48;;;;;;;6.78;5.30;;;20.20;94.20;;;;;;4922653;29;20043;-54
2021/08/22 11:05:16;;;;;;;6.18;4.53;;;20.20;93.90;;;;;;4946409;28;20568;-55
2021/08/22 11:07:44;;;;;;;4.93;4.13;;;20.20;94.00;;;;;;4941669;29;20040;-52
2021/08/22 11:10:21;;;;;;;5.65;4.35;;;20.20;94.20;;;;;;4942864;28;20038;-51
2021/08/22 11:12:50;;;;;;;5.00;3.70;;;20.40;94.20;;;;;;4942277;29;20503;-52
2021/08/22 11:15:28;;;;;;;6.40;4.25;;;20.60;93.00;;;;;;4936659;28;20035;-53
2021/08/22 11:18:05;;;;;;;5.80;4.05;;;20.70;92.70;;;;;;4924610;29;20066;-51
2021/08/22 11:20:33;;;;;;;5.78;3.90;;;20.80;91.60;;;;;;4921566;29;20428;-52
2021/08/22 11:23:07;;;;;;;5.65;4.43;;;20.90;92.50;;;;;;4948432;29;20047;-55
2021/08/22 11:25:35;;;;;;;5.95;4.70;;;21.00;92.60;;;;;;4947021;29;20392;-54
2021/08/22 11:28:10;;;;;;;6.35;4.57;;;21.00;92.50;;;;;;4922591;29;20044;-54
2021/08/22 11:30:37;;;;;;;5.63;3.65;;;21.00;92.20;;;;;;4945011;29;20403;-54
2021/08/22 11:33:03;;;;;;;4.97;3.80;;;21.20;92.30;;;;;;4954690;28;20076;-57
2021/08/22 11:35:29;;;;;;;5.30;3.60;;;21.30;91.70;;;;;;4955718;28;20043;-55
2021/08/22 11:37:59;;;;;;;4.47;3.13;;;21.40;91.10;;;;;;4948347;29;20053;-55
2021/08/22 11:40:27;;;;;;;4.75;3.55;;;21.30;90.80;;;;;;4956937;29;20074;-54
2021/08/22 11:42:58;;;;;;;3.80;2.92;;;21.40;91.20;;;;;;4935248;29;20043;-57
2021/08/22 11:45:31;;;;;;;3.78;3.15;;;21.50;91.00;;;;;;4956271;28;20050;-56
2021/08/22 11:47:59;;;;;;;5.78;3.80;;;21.70;91.10;;;;;;4952785;29;20042;-54
2021/08/22 11:50:29;;;;;;;4.38;3.42;;;21.80;90.90;;;;;;4948045;29;20046;-54
2021/08/22 11:53:00;;;;;;;4.78;3.35;;;21.80;90.60;;;;;;4912045;29;20128;-53
2021/08/22 11:55:32;;;;;;;4.95;3.53;;;21.80;90.20;;;;;;4919042;29;20040;-54
2021/08/22 11:58:12;;;;;;;5.45;4.30;;;21.70;90.40;;;;;;4921739;29;20066;-55
2021/08/22 12:00:45;;;;;;;6.22;4.63;;;21.80;90.40;;;;;;4954825;29;20503;-55
2021/08/22 12:03:16;;;;;;;5.53;4.20;;;21.60;90.20;;;;;;4953068;28;20043;-54
2021/08/22 12:05:54;;;;;;;4.97;3.75;;;21.40;90.70;;;;;;4921973;29;20047;-54
2021/08/22 12:08:21;;;;;;;3.83;3.28;;;21.30;91.00;;;;;;4955565;29;20043;-55
2021/08/22 12:10:48;;;;;;;4.50;3.90;;;21.10;91.40;;;;;;4939374;29;20039;-54
2021/08/22 12:13:18;;;;;;;6.72;4.43;;;21.00;91.60;;;;;;4954407;28;20035;-55
2021/08/22 12:15:45;;;;;;;7.35;4.80;;;20.90;91.90;;;;;;4955870;28;20138;-56
2021/08/22 12:18:27;;;;;;;6.18;5.15;;;20.80;91.90;;;;;;4938467;28;20073;-54
2021/08/22 12:21:16;;;;;;;6.50;4.25;;;20.60;92.30;;;;;;4955746;28;20051;-56
2021/08/22 12:23:45;;;;;;;6.65;3.85;;;20.50;91.90;;;;;;4909731;29;20041;-56
2021/08/22 12:26:29;;;;;;;6.50;4.07;;;20.50;92.20;;;;;;4955277;28;20047;-56
2021/08/22 12:28:57;;;;;;;6.40;4.15;;;20.70;92.50;;;;;;4954941;28;20062;-54
2021/08/22 12:31:40;;;;;;;6.15;4.15;;;20.80;92.00;;;;;;4955414;28;20051;-55
2021/08/22 12:34:11;;;;;;;6.90;3.50;;;21.00;92.20;;;;;;4949627;29;20079;-56
2021/08/22 12:36:43;;;;;;;5.20;3.97;;;21.30;92.10;;;;;;4931089;29;20063;-56
2021/08/22 12:39:10;;;;;;;4.60;3.63;;;21.40;90.70;;;;;;4954671;29;20047;-54
2021/08/22 12:41:47;;;;;;;5.13;3.95;;;21.50;90.90;;;;;;4954794;29;20036;-54
2021/08/22 12:44:14;;;;;;;6.38;4.30;;;21.60;90.30;;;;;;4942148;28;20063;-54
2021/08/22 12:46:42;;;;;;;6.53;4.00;;;21.60;90.50;;;;;;4938455;29;20066;-54
2021/08/22 12:49:11;;;;;;;4.75;4.05;;;21.60;90.50;;;;;;4955151;29;20047;-55
2021/08/22 12:51:44;;;;;;;4.55;3.90;;;21.60;90.00;;;;;;4937617;29;20031;-54